sensor_id;sensor_type;location;lat;lon;timestamp;temperature;humidity
1277;DHT22;631;51.024;13.826;2022-11-21T00:00:59;-0.10;99.90
1277;DHT22;631;51.024;13.826;2022-11-21T00:03:25;-0.10;99.90
1277;DHT22;631;51.024;13.826;2022-11-21T00:05:50;0.00;99.90
1277;DHT22;631;51.024;13.826;2022-11-21T00:08:17;0.00;99.90
1277;DHT22;631;51.024;13.826;2022-11-21T00:10:42;0.00;99.90
1277;DHT22;631;51.024;13.826;2022-11-21T00:13:12;0.00;99.90
1277;DHT22;631;51.024;13.826;2022-11-21T00:15:38;0.10;99.90
1277;DHT22;631;51.024;13.826;2022-11-21T00:18:03;0.10;99.90
1277;DHT22;631;51.024;13.826;2022-11-21T00:20:29;0.10;99.90
1277;DHT22;631;51.024;13.826;2022-11-21T00:22:54;0.00;99.90
1277;DHT22;631;51.024;13.826;2022-11-21T00:25:20;0.10;99.90
1277;DHT22;631;51.024;13.826;2022-11-21T00:27:45;0.10;99.90
1277;DHT22;631;51.024;13.826;2022-11-21T00:30:11;0.20;99.90
1277;DHT22;631;51.024;13.826;2022-11-21T00:32:37;0.10;99.90
1277;DHT22;631;51.024;13.826;2022-11-21T00:35:02;0.20;99.90
1277;DHT22;631;51.024;13.826;2022-11-21T00:37:28;0.10;99.90
1277;DHT22;631;51.024;13.826;2022-11-21T00:39:55;0.20;99.90
1277;DHT22;631;51.024;13.826;2022-11-21T00:42:21;0.20;99.90
1277;DHT22;631;51.024;13.826;2022-11-21T00:44:46;0.20;99.90
1277;DHT22;631;51.024;13.826;2022-11-21T00:47:12;0.30;99.90
1277;DHT22;631;51.024;13.826;2022-11-21T00:49:37;0.30;99.90
1277;DHT22;631;51.024;13.826;2022-11-21T00:52:02;0.30;99.90
1277;DHT22;631;51.024;13.826;2022-11-21T00:54:28;0.30;99.90
1277;DHT22;631;51.024;13.826;2022-11-21T00:56:53;0.40;99.90
1277;DHT22;631;51.024;13.826;2022-11-21T00:59:19;0.40;99.90
1277;DHT22;631;51.024;13.826;2022-11-21T01:01:44;0.40;99.90
1277;DHT22;631;51.024;13.826;2022-11-21T01:04:10;0.50;99.90
1277;DHT22;631;51.024;13.826;2022-11-21T01:06:36;0.50;99.90
1277;DHT22;631;51.024;13.826;2022-11-21T01:09:01;0.60;99.90
1277;DHT22;631;51.024;13.826;2022-11-21T01:11:27;0.70;99.90
1277;DHT22;631;51.024;13.826;2022-11-21T01:13:53;0.70;99.90
1277;DHT22;631;51.024;13.826;2022-11-21T01:16:20;0.70;99.90
1277;DHT22;631;51.024;13.826;2022-11-21T01:18:46;0.80;99.90
1277;DHT22;631;51.024;13.826;2022-11-21T01:21:16;0.80;99.90
1277;DHT22;631;51.024;13.826;2022-11-21T01:23:42;0.80;99.90
1277;DHT22;631;51.024;13.826;2022-11-21T01:26:11;0.90;99.90
1277;DHT22;631;51.024;13.826;2022-11-21T01:28:37;1.00;99.90
1277;DHT22;631;51.024;13.826;2022-11-21T01:31:05;1.00;99.90
1277;DHT22;631;51.024;13.826;2022-11-21T01:33:31;1.10;99.90
1277;DHT22;631;51.024;13.826;2022-11-21T01:36:04;1.20;99.90
1277;DHT22;631;51.024;13.826;2022-11-21T01:38:31;1.30;99.90
1277;DHT22;631;51.024;13.826;2022-11-21T01:40:56;1.30;99.90
1277;DHT22;631;51.024;13.826;2022-11-21T01:43:22;1.30;99.90
1277;DHT22;631;51.024;13.826;2022-11-21T01:45:55;1.40;99.90
1277;DHT22;631;51.024;13.826;2022-11-21T01:48:22;1.50;99.90
1277;DHT22;631;51.024;13.826;2022-11-21T01:50:50;1.50;99.90
1277;DHT22;631;51.024;13.826;2022-11-21T01:53:15;1.60;99.90
1277;DHT22;631;51.024;13.826;2022-11-21T01:55:41;1.60;99.90
1277;DHT22;631;51.024;13.826;2022-11-21T01:58:07;1.70;99.90
1277;DHT22;631;51.024;13.826;2022-11-21T02:00:34;1.60;99.90
1277;DHT22;631;51.024;13.826;2022-11-21T02:03:02;1.70;99.90
1277;DHT22;631;51.024;13.826;2022-11-21T02:05:30;1.70;99.90
1277;DHT22;631;51.024;13.826;2022-11-21T02:07:58;1.70;99.90
1277;DHT22;631;51.024;13.826;2022-11-21T02:10:24;1.70;99.90
1277;DHT22;631;51.024;13.826;2022-11-21T02:12:50;1.70;99.90
1277;DHT22;631;51.024;13.826;2022-11-21T02:15:16;1.80;99.90
1277;DHT22;631;51.024;13.826;2022-11-21T02:17:42;1.80;99.90
1277;DHT22;631;51.024;13.826;2022-11-21T02:20:11;1.80;99.90
1277;DHT22;631;51.024;13.826;2022-11-21T02:25:13;1.90;99.90
1277;DHT22;631;51.024;13.826;2022-11-21T02:27:39;1.90;99.90
1277;DHT22;631;51.024;13.826;2022-11-21T02:30:05;2.00;99.90
1277;DHT22;631;51.024;13.826;2022-11-21T02:32:39;2.00;99.90
1277;DHT22;631;51.024;13.826;2022-11-21T02:35:05;2.00;99.90
1277;DHT22;631;51.024;13.826;2022-11-21T02:37:31;2.10;99.90
1277;DHT22;631;51.024;13.826;2022-11-21T02:39:57;2.10;99.90
1277;DHT22;631;51.024;13.826;2022-11-21T02:45:20;2.10;99.90
1277;DHT22;631;51.024;13.826;2022-11-21T02:47:46;2.00;99.90
1277;DHT22;631;51.024;13.826;2022-11-21T02:50:27;2.10;99.90
1277;DHT22;631;51.024;13.826;2022-11-21T02:52:53;2.00;99.90
1277;DHT22;631;51.024;13.826;2022-11-21T02:55:20;2.00;99.90
1277;DHT22;631;51.024;13.826;2022-11-21T02:57:46;2.10;99.90
1277;DHT22;631;51.024;13.826;2022-11-21T03:00:11;2.00;99.90
1277;DHT22;631;51.024;13.826;2022-11-21T03:02:37;2.10;99.90
1277;DHT22;631;51.024;13.826;2022-11-21T03:05:05;2.10;99.90
1277;DHT22;631;51.024;13.826;2022-11-21T03:07:31;2.10;99.90
1277;DHT22;631;51.024;13.826;2022-11-21T03:09:56;2.10;99.90
1277;DHT22;631;51.024;13.826;2022-11-21T03:12:22;2.10;99.90
1277;DHT22;631;51.024;13.826;2022-11-21T03:14:47;2.20;99.90
1277;DHT22;631;51.024;13.826;2022-11-21T03:17:13;2.20;99.90
1277;DHT22;631;51.024;13.826;2022-11-21T03:19:38;2.20;99.90
1277;DHT22;631;51.024;13.826;2022-11-21T03:22:04;2.30;99.90
1277;DHT22;631;51.024;13.826;2022-11-21T03:24:29;2.30;99.90
1277;DHT22;631;51.024;13.826;2022-11-21T03:26:55;2.30;99.90
1277;DHT22;631;51.024;13.826;2022-11-21T03:29:20;2.30;99.90
1277;DHT22;631;51.024;13.826;2022-11-21T03:31:46;2.40;99.90
1277;DHT22;631;51.024;13.826;2022-11-21T03:34:11;2.40;99.90
1277;DHT22;631;51.024;13.826;2022-11-21T03:36:37;2.40;99.90
1277;DHT22;631;51.024;13.826;2022-11-21T03:39:02;2.40;99.90
1277;DHT22;631;51.024;13.826;2022-11-21T03:41:28;2.40;99.90
1277;DHT22;631;51.024;13.826;2022-11-21T03:44:07;2.40;99.90
1277;DHT22;631;51.024;13.826;2022-11-21T03:46:34;2.40;99.90
1277;DHT22;631;51.024;13.826;2022-11-21T03:49:00;2.40;99.90
1277;DHT22;631;51.024;13.826;2022-11-21T03:51:26;2.50;99.90
1277;DHT22;631;51.024;13.826;2022-11-21T03:53:51;2.50;99.90
1277;DHT22;631;51.024;13.826;2022-11-21T03:56:17;2.50;99.90
1277;DHT22;631;51.024;13.826;2022-11-21T03:58:43;2.60;99.90
1277;DHT22;631;51.024;13.826;2022-11-21T04:01:08;2.60;99.90
1277;DHT22;631;51.024;13.826;2022-11-21T04:03:34;2.60;99.90
1277;DHT22;631;51.024;13.826;2022-11-21T04:06:00;2.60;99.90
1277;DHT22;631;51.024;13.826;2022-11-21T04:08:25;2.60;99.90
1277;DHT22;631;51.024;13.826;2022-11-21T04:10:52;2.70;99.90
1277;DHT22;631;51.024;13.826;2022-11-21T04:13:17;2.70;99.90
1277;DHT22;631;51.024;13.826;2022-11-21T04:15:43;2.70;99.90
1277;DHT22;631;51.024;13.826;2022-11-21T04:18:09;2.80;99.90
1277;DHT22;631;51.024;13.826;2022-11-21T04:20:35;2.80;99.90
1277;DHT22;631;51.024;13.826;2022-11-21T04:23:00;2.70;99.90
1277;DHT22;631;51.024;13.826;2022-11-21T04:25:26;2.80;99.90
1277;DHT22;631;51.024;13.826;2022-11-21T04:27:55;2.80;99.90
1277;DHT22;631;51.024;13.826;2022-11-21T04:30:20;2.80;99.90
1277;DHT22;631;51.024;13.826;2022-11-21T04:32:46;2.80;99.90
1277;DHT22;631;51.024;13.826;2022-11-21T04:35:13;2.90;99.90
1277;DHT22;631;51.024;13.826;2022-11-21T04:37:39;2.90;99.90
1277;DHT22;631;51.024;13.826;2022-11-21T04:40:04;2.80;99.90
1277;DHT22;631;51.024;13.826;2022-11-21T04:42:30;2.90;99.90
1277;DHT22;631;51.024;13.826;2022-11-21T04:44:55;2.90;99.90
1277;DHT22;631;51.024;13.826;2022-11-21T04:47:21;2.90;99.90
1277;DHT22;631;51.024;13.826;2022-11-21T04:49:46;2.90;99.90
1277;DHT22;631;51.024;13.826;2022-11-21T04:52:12;2.90;99.90
1277;DHT22;631;51.024;13.826;2022-11-21T04:54:37;3.00;99.90
1277;DHT22;631;51.024;13.826;2022-11-21T04:57:03;2.90;99.90
1277;DHT22;631;51.024;13.826;2022-11-21T04:59:28;2.90;99.90
1277;DHT22;631;51.024;13.826;2022-11-21T05:01:54;2.80;99.90
1277;DHT22;631;51.024;13.826;2022-11-21T05:04:19;2.90;99.90
1277;DHT22;631;51.024;13.826;2022-11-21T05:06:44;2.90;99.90
1277;DHT22;631;51.024;13.826;2022-11-21T05:09:10;2.80;99.90
1277;DHT22;631;51.024;13.826;2022-11-21T05:11:35;2.80;99.90
1277;DHT22;631;51.024;13.826;2022-11-21T05:14:20;2.80;99.90
1277;DHT22;631;51.024;13.826;2022-11-21T05:16:45;2.80;99.90
1277;DHT22;631;51.024;13.826;2022-11-21T05:19:11;2.80;99.90
1277;DHT22;631;51.024;13.826;2022-11-21T05:21:36;2.80;99.90
1277;DHT22;631;51.024;13.826;2022-11-21T05:24:02;2.80;99.90
1277;DHT22;631;51.024;13.826;2022-11-21T05:26:27;2.80;99.90
1277;DHT22;631;51.024;13.826;2022-11-21T05:28:52;2.80;99.90
1277;DHT22;631;51.024;13.826;2022-11-21T05:31:18;2.80;99.90
1277;DHT22;631;51.024;13.826;2022-11-21T05:33:43;2.80;99.90
1277;DHT22;631;51.024;13.826;2022-11-21T05:36:09;2.80;99.90
1277;DHT22;631;51.024;13.826;2022-11-21T05:38:34;2.80;99.90
1277;DHT22;631;51.024;13.826;2022-11-21T05:41:00;2.80;99.90
1277;DHT22;631;51.024;13.826;2022-11-21T05:43:25;2.90;99.90
1277;DHT22;631;51.024;13.826;2022-11-21T05:46:10;2.90;99.90
1277;DHT22;631;51.024;13.826;2022-11-21T05:48:35;2.90;99.90
1277;DHT22;631;51.024;13.826;2022-11-21T05:51:02;2.90;99.90
1277;DHT22;631;51.024;13.826;2022-11-21T05:53:27;3.00;99.90
1277;DHT22;631;51.024;13.826;2022-11-21T05:55:53;3.00;99.90
1277;DHT22;631;51.024;13.826;2022-11-21T05:58:18;3.00;99.90
1277;DHT22;631;51.024;13.826;2022-11-21T06:00:44;3.00;99.90
1277;DHT22;631;51.024;13.826;2022-11-21T06:03:10;3.00;99.90
1277;DHT22;631;51.024;13.826;2022-11-21T06:05:58;3.10;99.90
1277;DHT22;631;51.024;13.826;2022-11-21T06:08:25;3.10;99.90
1277;DHT22;631;51.024;13.826;2022-11-21T06:10:50;3.10;99.90
1277;DHT22;631;51.024;13.826;2022-11-21T06:13:16;3.10;99.90
1277;DHT22;631;51.024;13.826;2022-11-21T06:18:13;3.10;99.90
1277;DHT22;631;51.024;13.826;2022-11-21T06:20:38;3.10;99.90
1277;DHT22;631;51.024;13.826;2022-11-21T06:23:04;3.10;99.90
1277;DHT22;631;51.024;13.826;2022-11-21T06:25:29;3.10;99.90
1277;DHT22;631;51.024;13.826;2022-11-21T06:27:55;3.10;99.90
1277;DHT22;631;51.024;13.826;2022-11-21T06:30:20;3.10;99.90
1277;DHT22;631;51.024;13.826;2022-11-21T06:32:46;3.10;99.90
1277;DHT22;631;51.024;13.826;2022-11-21T06:35:11;3.20;99.90
1277;DHT22;631;51.024;13.826;2022-11-21T06:37:37;3.10;99.90
1277;DHT22;631;51.024;13.826;2022-11-21T06:40:02;3.10;99.90
1277;DHT22;631;51.024;13.826;2022-11-21T06:42:28;3.10;99.90
1277;DHT22;631;51.024;13.826;2022-11-21T06:44:54;3.00;99.90
1277;DHT22;631;51.024;13.826;2022-11-21T06:47:19;3.00;99.90
1277;DHT22;631;51.024;13.826;2022-11-21T06:49:45;3.00;99.90
1277;DHT22;631;51.024;13.826;2022-11-21T06:52:11;3.00;99.90
1277;DHT22;631;51.024;13.826;2022-11-21T06:54:36;3.00;99.90
1277;DHT22;631;51.024;13.826;2022-11-21T06:57:02;3.00;99.90
1277;DHT22;631;51.024;13.826;2022-11-21T06:59:27;3.00;99.90
1277;DHT22;631;51.024;13.826;2022-11-21T07:01:53;3.00;99.90
1277;DHT22;631;51.024;13.826;2022-11-21T07:04:18;2.90;99.90
1277;DHT22;631;51.024;13.826;2022-11-21T07:06:44;2.90;99.90
1277;DHT22;631;51.024;13.826;2022-11-21T07:09:09;3.00;99.90
1277;DHT22;631;51.024;13.826;2022-11-21T07:11:35;3.00;99.90
1277;DHT22;631;51.024;13.826;2022-11-21T07:14:00;2.90;99.90
1277;DHT22;631;51.024;13.826;2022-11-21T07:16:26;3.00;99.90
1277;DHT22;631;51.024;13.826;2022-11-21T07:18:54;3.00;99.90
1277;DHT22;631;51.024;13.826;2022-11-21T07:21:20;3.00;99.90
1277;DHT22;631;51.024;13.826;2022-11-21T07:23:45;3.00;99.90
1277;DHT22;631;51.024;13.826;2022-11-21T07:26:11;3.00;99.90
1277;DHT22;631;51.024;13.826;2022-11-21T07:28:37;3.00;99.90
1277;DHT22;631;51.024;13.826;2022-11-21T07:31:02;3.00;99.90
1277;DHT22;631;51.024;13.826;2022-11-21T07:33:28;3.00;99.90
1277;DHT22;631;51.024;13.826;2022-11-21T07:35:54;3.10;99.90
1277;DHT22;631;51.024;13.826;2022-11-21T07:38:20;3.00;99.90
1277;DHT22;631;51.024;13.826;2022-11-21T07:40:46;3.00;99.90
1277;DHT22;631;51.024;13.826;2022-11-21T07:43:11;3.00;99.90
1277;DHT22;631;51.024;13.826;2022-11-21T07:45:37;2.90;99.90
1277;DHT22;631;51.024;13.826;2022-11-21T07:48:03;2.80;99.90
1277;DHT22;631;51.024;13.826;2022-11-21T07:50:29;2.80;99.90
1277;DHT22;631;51.024;13.826;2022-11-21T07:52:58;2.70;99.90
1277;DHT22;631;51.024;13.826;2022-11-21T07:55:24;2.70;99.90
1277;DHT22;631;51.024;13.826;2022-11-21T07:58:00;2.60;99.90
1277;DHT22;631;51.024;13.826;2022-11-21T08:00:26;2.70;99.90
1277;DHT22;631;51.024;13.826;2022-11-21T08:02:52;2.50;99.90
1277;DHT22;631;51.024;13.826;2022-11-21T08:05:17;2.50;99.90
1277;DHT22;631;51.024;13.826;2022-11-21T08:07:43;2.50;99.90
1277;DHT22;631;51.024;13.826;2022-11-21T08:10:08;2.50;99.90
1277;DHT22;631;51.024;13.826;2022-11-21T08:12:34;2.30;99.90
1277;DHT22;631;51.024;13.826;2022-11-21T08:14:59;2.20;99.90
1277;DHT22;631;51.024;13.826;2022-11-21T08:17:25;2.10;99.90
1277;DHT22;631;51.024;13.826;2022-11-21T08:19:51;2.00;99.90
1277;DHT22;631;51.024;13.826;2022-11-21T08:22:16;2.00;99.90
1277;DHT22;631;51.024;13.826;2022-11-21T08:24:42;1.90;99.90
1277;DHT22;631;51.024;13.826;2022-11-21T08:27:07;1.80;99.90
1277;DHT22;631;51.024;13.826;2022-11-21T08:29:33;1.80;99.90
1277;DHT22;631;51.024;13.826;2022-11-21T08:31:58;1.70;99.90
1277;DHT22;631;51.024;13.826;2022-11-21T08:34:23;1.60;99.90
1277;DHT22;631;51.024;13.826;2022-11-21T08:36:49;1.50;99.90
1277;DHT22;631;51.024;13.826;2022-11-21T08:39:14;1.40;99.90
1277;DHT22;631;51.024;13.826;2022-11-21T08:41:40;1.50;99.90
1277;DHT22;631;51.024;13.826;2022-11-21T08:44:24;1.50;99.90
1277;DHT22;631;51.024;13.826;2022-11-21T08:46:50;1.40;99.90
1277;DHT22;631;51.024;13.826;2022-11-21T08:49:15;1.40;99.90
1277;DHT22;631;51.024;13.826;2022-11-21T08:51:41;1.40;99.90
1277;DHT22;631;51.024;13.826;2022-11-21T08:54:07;1.30;99.90
1277;DHT22;631;51.024;13.826;2022-11-21T08:56:33;1.20;99.90
1277;DHT22;631;51.024;13.826;2022-11-21T08:58:59;1.20;99.90
1277;DHT22;631;51.024;13.826;2022-11-21T09:01:24;1.20;99.90
1277;DHT22;631;51.024;13.826;2022-11-21T09:03:50;1.20;99.90
1277;DHT22;631;51.024;13.826;2022-11-21T09:06:15;1.10;99.90
1277;DHT22;631;51.024;13.826;2022-11-21T09:08:41;1.10;99.90
1277;DHT22;631;51.024;13.826;2022-11-21T09:11:07;1.10;99.90
1277;DHT22;631;51.024;13.826;2022-11-21T09:13:33;1.00;99.90
1277;DHT22;631;51.024;13.826;2022-11-21T09:15:59;1.10;99.90
1277;DHT22;631;51.024;13.826;2022-11-21T09:18:43;1.10;99.90
1277;DHT22;631;51.024;13.826;2022-11-21T09:21:15;1.10;99.90
1277;DHT22;631;51.024;13.826;2022-11-21T09:23:40;1.10;99.90
1277;DHT22;631;51.024;13.826;2022-11-21T09:26:06;1.00;99.90
1277;DHT22;631;51.024;13.826;2022-11-21T09:28:31;1.10;99.90
1277;DHT22;631;51.024;13.826;2022-11-21T09:30:57;1.00;99.90
1277;DHT22;631;51.024;13.826;2022-11-21T09:33:22;1.00;99.90
1277;DHT22;631;51.024;13.826;2022-11-21T09:35:48;1.10;99.90
1277;DHT22;631;51.024;13.826;2022-11-21T09:38:13;1.10;99.90
1277;DHT22;631;51.024;13.826;2022-11-21T09:40:40;1.10;99.90
1277;DHT22;631;51.024;13.826;2022-11-21T09:45:46;1.10;99.90
1277;DHT22;631;51.024;13.826;2022-11-21T09:48:13;1.00;99.90
1277;DHT22;631;51.024;13.826;2022-11-21T09:50:50;1.00;99.90
1277;DHT22;631;51.024;13.826;2022-11-21T09:53:19;1.00;99.90
1277;DHT22;631;51.024;13.826;2022-11-21T09:58:36;1.00;99.90
1277;DHT22;631;51.024;13.826;2022-11-21T10:01:04;1.10;99.90
1277;DHT22;631;51.024;13.826;2022-11-21T10:03:30;1.10;99.90
1277;DHT22;631;51.024;13.826;2022-11-21T10:05:58;1.10;99.90
1277;DHT22;631;51.024;13.826;2022-11-21T10:08:33;1.10;99.90
1277;DHT22;631;51.024;13.826;2022-11-21T10:11:05;1.10;99.90
1277;DHT22;631;51.024;13.826;2022-11-21T10:16:12;1.10;99.90
1277;DHT22;631;51.024;13.826;2022-11-21T10:24:04;1.10;99.90
1277;DHT22;631;51.024;13.826;2022-11-21T10:26:41;1.10;99.90
1277;DHT22;631;51.024;13.826;2022-11-21T10:31:35;1.10;99.90
1277;DHT22;631;51.024;13.826;2022-11-21T10:34:02;1.20;99.90
1277;DHT22;631;51.024;13.826;2022-11-21T10:36:38;1.20;99.90
1277;DHT22;631;51.024;13.826;2022-11-21T10:39:49;1.20;99.90
1277;DHT22;631;51.024;13.826;2022-11-21T10:41:52;1.20;99.90
1277;DHT22;631;51.024;13.826;2022-11-21T10:44:24;1.20;99.90
1277;DHT22;631;51.024;13.826;2022-11-21T10:47:13;1.20;99.90
1277;DHT22;631;51.024;13.826;2022-11-21T10:49:39;1.20;99.90
1277;DHT22;631;51.024;13.826;2022-11-21T10:52:12;1.20;99.90
1277;DHT22;631;51.024;13.826;2022-11-21T10:57:23;1.40;99.90
1277;DHT22;631;51.024;13.826;2022-11-21T10:59:57;1.40;99.90
1277;DHT22;631;51.024;13.826;2022-11-21T11:02:24;1.50;99.90
1277;DHT22;631;51.024;13.826;2022-11-21T11:05:07;1.40;99.90
1277;DHT22;631;51.024;13.826;2022-11-21T11:07:35;1.50;99.90
1277;DHT22;631;51.024;13.826;2022-11-21T11:12:44;1.50;99.90
1277;DHT22;631;51.024;13.826;2022-11-21T11:15:31;1.50;99.90
1277;DHT22;631;51.024;13.826;2022-11-21T11:17:58;1.50;99.90
1277;DHT22;631;51.024;13.826;2022-11-21T11:22:53;1.70;99.90
1277;DHT22;631;51.024;13.826;2022-11-21T11:25:18;1.80;99.90
1277;DHT22;631;51.024;13.826;2022-11-21T11:27:44;1.80;99.90
1277;DHT22;631;51.024;13.826;2022-11-21T11:30:16;1.90;99.90
1277;DHT22;631;51.024;13.826;2022-11-21T11:32:42;1.90;99.90
1277;DHT22;631;51.024;13.826;2022-11-21T11:37:42;2.00;99.90
1277;DHT22;631;51.024;13.826;2022-11-21T11:43:00;2.10;99.90
1277;DHT22;631;51.024;13.826;2022-11-21T11:48:44;2.20;99.90
1277;DHT22;631;51.024;13.826;2022-11-21T11:51:19;2.40;99.90
1277;DHT22;631;51.024;13.826;2022-11-21T11:53:47;2.50;99.90
1277;DHT22;631;51.024;13.826;2022-11-21T12:01:22;2.60;99.90
1277;DHT22;631;51.024;13.826;2022-11-21T12:03:53;2.60;99.90
1277;DHT22;631;51.024;13.826;2022-11-21T12:06:23;2.60;99.90
1277;DHT22;631;51.024;13.826;2022-11-21T12:08:53;2.70;99.90
1277;DHT22;631;51.024;13.826;2022-11-21T12:14:29;2.70;99.90
1277;DHT22;631;51.024;13.826;2022-11-21T12:17:18;2.60;99.90
1277;DHT22;631;51.024;13.826;2022-11-21T12:19:45;2.60;99.90
1277;DHT22;631;51.024;13.826;2022-11-21T12:22:12;2.60;99.90
1277;DHT22;631;51.024;13.826;2022-11-21T12:24:37;2.60;99.90
1277;DHT22;631;51.024;13.826;2022-11-21T12:42:32;2.60;99.90
1277;DHT22;631;51.024;13.826;2022-11-21T12:45:23;2.50;99.90
1277;DHT22;631;51.024;13.826;2022-11-21T12:56:48;2.50;99.90
1277;DHT22;631;51.024;13.826;2022-11-21T12:59:15;2.40;99.90
1277;DHT22;631;51.024;13.826;2022-11-21T13:01:48;2.50;99.90
1277;DHT22;631;51.024;13.826;2022-11-21T13:04:20;2.50;99.90
1277;DHT22;631;51.024;13.826;2022-11-21T13:06:46;2.50;99.90
1277;DHT22;631;51.024;13.826;2022-11-21T13:09:17;2.50;99.90
1277;DHT22;631;51.024;13.826;2022-11-21T13:14:32;2.40;99.90
1277;DHT22;631;51.024;13.826;2022-11-21T13:19:58;2.40;99.90
1277;DHT22;631;51.024;13.826;2022-11-21T13:32:40;2.50;99.90
1277;DHT22;631;51.024;13.826;2022-11-21T13:38:03;2.50;99.90
1277;DHT22;631;51.024;13.826;2022-11-21T13:43:22;2.50;99.90
1277;DHT22;631;51.024;13.826;2022-11-21T13:45:48;2.50;99.90
1277;DHT22;631;51.024;13.826;2022-11-21T13:56:24;2.60;99.90
1277;DHT22;631;51.024;13.826;2022-11-21T14:04:02;2.60;99.90
1277;DHT22;631;51.024;13.826;2022-11-21T14:16:48;2.60;99.90
1277;DHT22;631;51.024;13.826;2022-11-21T14:19:17;2.40;99.90
1277;DHT22;631;51.024;13.826;2022-11-21T14:21:44;2.30;99.90
1277;DHT22;631;51.024;13.826;2022-11-21T14:24:17;2.20;99.90
1277;DHT22;631;51.024;13.826;2022-11-21T14:26:43;2.10;99.90
1277;DHT22;631;51.024;13.826;2022-11-21T14:29:36;2.00;99.90
1277;DHT22;631;51.024;13.826;2022-11-21T14:31:58;1.90;99.90
1277;DHT22;631;51.024;13.826;2022-11-21T14:34:24;1.90;99.90
1277;DHT22;631;51.024;13.826;2022-11-21T14:36:50;2.00;99.90
1277;DHT22;631;51.024;13.826;2022-11-21T14:39:16;2.00;99.90
1277;DHT22;631;51.024;13.826;2022-11-21T14:41:42;2.00;99.90
1277;DHT22;631;51.024;13.826;2022-11-21T14:51:34;2.10;99.90
1277;DHT22;631;51.024;13.826;2022-11-21T14:54:00;2.10;99.90
1277;DHT22;631;51.024;13.826;2022-11-21T14:56:29;2.20;99.90
1277;DHT22;631;51.024;13.826;2022-11-21T14:58:57;2.10;99.90
1277;DHT22;631;51.024;13.826;2022-11-21T15:01:27;2.10;99.90
1277;DHT22;631;51.024;13.826;2022-11-21T15:04:00;2.10;99.90
1277;DHT22;631;51.024;13.826;2022-11-21T15:06:26;2.00;99.90
1277;DHT22;631;51.024;13.826;2022-11-21T15:08:54;2.00;99.90
1277;DHT22;631;51.024;13.826;2022-11-21T15:11:26;1.90;99.90
1277;DHT22;631;51.024;13.826;2022-11-21T15:13:53;1.90;99.90
1277;DHT22;631;51.024;13.826;2022-11-21T15:16:22;2.00;99.90
1277;DHT22;631;51.024;13.826;2022-11-21T15:18:47;1.90;99.90
1277;DHT22;631;51.024;13.826;2022-11-21T15:21:13;1.90;99.90
1277;DHT22;631;51.024;13.826;2022-11-21T15:23:40;1.90;99.90
1277;DHT22;631;51.024;13.826;2022-11-21T15:28:55;1.90;99.90
1277;DHT22;631;51.024;13.826;2022-11-21T15:31:21;1.90;99.90
1277;DHT22;631;51.024;13.826;2022-11-21T15:36:19;1.80;99.90
1277;DHT22;631;51.024;13.826;2022-11-21T15:43:36;1.80;99.90
1277;DHT22;631;51.024;13.826;2022-11-21T15:46:03;1.80;99.90
1277;DHT22;631;51.024;13.826;2022-11-21T15:48:29;1.70;99.90
1277;DHT22;631;51.024;13.826;2022-11-21T15:50:55;1.60;99.90
1277;DHT22;631;51.024;13.826;2022-11-21T15:53:21;1.60;99.90
1277;DHT22;631;51.024;13.826;2022-11-21T15:55:46;1.60;99.90
1277;DHT22;631;51.024;13.826;2022-11-21T15:58:12;1.60;99.90
1277;DHT22;631;51.024;13.826;2022-11-21T16:00:37;1.60;99.90
1277;DHT22;631;51.024;13.826;2022-11-21T16:03:03;1.60;99.90
1277;DHT22;631;51.024;13.826;2022-11-21T16:05:28;1.60;99.90
1277;DHT22;631;51.024;13.826;2022-11-21T16:07:54;1.70;99.90
1277;DHT22;631;51.024;13.826;2022-11-21T16:10:19;1.70;99.90
1277;DHT22;631;51.024;13.826;2022-11-21T16:12:46;1.70;99.90
1277;DHT22;631;51.024;13.826;2022-11-21T16:15:11;1.70;99.90
1277;DHT22;631;51.024;13.826;2022-11-21T16:17:37;1.70;99.90
1277;DHT22;631;51.024;13.826;2022-11-21T16:20:04;1.60;99.90
1277;DHT22;631;51.024;13.826;2022-11-21T16:22:30;1.70;99.90
1277;DHT22;631;51.024;13.826;2022-11-21T16:24:55;1.60;99.90
1277;DHT22;631;51.024;13.826;2022-11-21T16:27:21;1.70;99.90
1277;DHT22;631;51.024;13.826;2022-11-21T16:29:46;1.70;99.90
1277;DHT22;631;51.024;13.826;2022-11-21T16:32:12;1.70;99.90
1277;DHT22;631;51.024;13.826;2022-11-21T16:34:37;1.70;99.90
1277;DHT22;631;51.024;13.826;2022-11-21T16:37:03;1.70;99.90
1277;DHT22;631;51.024;13.826;2022-11-21T16:39:28;1.60;99.90
1277;DHT22;631;51.024;13.826;2022-11-21T16:41:54;1.60;99.90
1277;DHT22;631;51.024;13.826;2022-11-21T16:44:19;1.60;99.90
1277;DHT22;631;51.024;13.826;2022-11-21T16:46:45;1.60;99.90
1277;DHT22;631;51.024;13.826;2022-11-21T16:49:12;1.60;99.90
1277;DHT22;631;51.024;13.826;2022-11-21T16:51:38;1.60;99.90
1277;DHT22;631;51.024;13.826;2022-11-21T16:54:03;1.60;99.90
1277;DHT22;631;51.024;13.826;2022-11-21T16:56:29;1.60;99.90
1277;DHT22;631;51.024;13.826;2022-11-21T16:58:54;1.60;99.90
1277;DHT22;631;51.024;13.826;2022-11-21T17:01:21;1.60;99.90
1277;DHT22;631;51.024;13.826;2022-11-21T17:03:47;1.60;99.90
1277;DHT22;631;51.024;13.826;2022-11-21T17:06:14;1.60;99.90
1277;DHT22;631;51.024;13.826;2022-11-21T17:08:39;1.60;99.90
1277;DHT22;631;51.024;13.826;2022-11-21T17:11:15;1.60;99.90
1277;DHT22;631;51.024;13.826;2022-11-21T17:13:41;1.60;99.90
1277;DHT22;631;51.024;13.826;2022-11-21T17:16:07;1.60;99.90
1277;DHT22;631;51.024;13.826;2022-11-21T17:18:33;1.60;99.90
1277;DHT22;631;51.024;13.826;2022-11-21T17:21:01;1.70;99.90
1277;DHT22;631;51.024;13.826;2022-11-21T17:23:29;1.70;99.90
1277;DHT22;631;51.024;13.826;2022-11-21T17:25:54;1.70;99.90
1277;DHT22;631;51.024;13.826;2022-11-21T17:28:24;1.60;99.90
1277;DHT22;631;51.024;13.826;2022-11-21T17:30:50;1.60;99.90
1277;DHT22;631;51.024;13.826;2022-11-21T17:33:15;1.70;99.90
1277;DHT22;631;51.024;13.826;2022-11-21T17:35:41;1.60;99.90
1277;DHT22;631;51.024;13.826;2022-11-21T17:38:06;1.70;99.90
1277;DHT22;631;51.024;13.826;2022-11-21T17:40:32;1.70;99.90
1277;DHT22;631;51.024;13.826;2022-11-21T17:42:57;1.80;99.90
1277;DHT22;631;51.024;13.826;2022-11-21T17:45:22;1.80;99.90
1277;DHT22;631;51.024;13.826;2022-11-21T17:47:48;1.80;99.90
1277;DHT22;631;51.024;13.826;2022-11-21T17:50:13;1.80;99.90
1277;DHT22;631;51.024;13.826;2022-11-21T17:52:39;1.90;99.90
1277;DHT22;631;51.024;13.826;2022-11-21T17:55:05;1.90;99.90
1277;DHT22;631;51.024;13.826;2022-11-21T17:57:30;1.90;99.90
1277;DHT22;631;51.024;13.826;2022-11-21T17:59:56;1.80;99.90
1277;DHT22;631;51.024;13.826;2022-11-21T18:02:21;1.70;99.90
1277;DHT22;631;51.024;13.826;2022-11-21T18:04:47;1.80;99.90
1277;DHT22;631;51.024;13.826;2022-11-21T18:07:13;1.70;99.90
1277;DHT22;631;51.024;13.826;2022-11-21T18:09:38;1.70;99.90
1277;DHT22;631;51.024;13.826;2022-11-21T18:12:04;1.70;99.90
1277;DHT22;631;51.024;13.826;2022-11-21T18:14:29;1.70;99.90
1277;DHT22;631;51.024;13.826;2022-11-21T18:16:55;1.60;99.90
1277;DHT22;631;51.024;13.826;2022-11-21T18:19:20;1.60;99.90
1277;DHT22;631;51.024;13.826;2022-11-21T18:21:47;1.50;99.90
1277;DHT22;631;51.024;13.826;2022-11-21T18:24:12;1.40;99.90
1277;DHT22;631;51.024;13.826;2022-11-21T18:26:38;1.40;99.90
1277;DHT22;631;51.024;13.826;2022-11-21T18:29:05;1.30;99.90
1277;DHT22;631;51.024;13.826;2022-11-21T18:31:30;1.30;99.90